Time;durP1;ratioP1;P1;durP2;ratioP2;P2;SDS_P1;SDS_P2;PMS_P1;PMS_P2;Temp;Humidity;BMP_temperature;BMP_pressure;BME280_temperature;BME280_humidity;BME280_pressure;Samples;Min_cycle;Max_cycle;Signal;HPM_P1;HPM_P2
2021/10/11 00:01:37;;;;;;;68.45;36.45;;;;;;;2.17;66.37;101207.66;2123938;82;30177;-61
2021/10/11 00:04:42;;;;;;;68.33;34.63;;;;;;;2.15;66.52;101208.09;2133069;81;27701;-61
2021/10/11 00:10:53;;;;;;;68.35;32.53;;;;;;;2.07;66.52;101205.45;2101768;81;31992;-61
2021/10/11 00:13:57;;;;;;;59.55;31.23;;;;;;;2.03;66.47;101200.61;2128534;81;33031;-61
2021/10/11 00:17:03;;;;;;;68.72;33.15;;;;;;;2.00;66.41;101202.35;2132232;80;29753;-62
2021/10/11 00:20:11;;;;;;;66.37;33.73;;;;;;;1.98;66.50;101202.36;2116718;82;28012;-61
2021/10/11 00:23:17;;;;;;;70.75;36.38;;;;;;;1.99;66.61;101201.94;2093845;82;28676;-62
2021/10/11 00:26:22;;;;;;;77.62;40.50;;;;;;;1.97;66.67;101208.11;2135601;81;31070;-64
2021/10/11 00:29:29;;;;;;;82.85;41.92;;;;;;;1.95;66.72;101203.68;2121857;81;33578;-62
2021/10/11 00:32:35;;;;;;;73.95;39.75;;;;;;;1.92;66.84;101197.06;2155827;81;29383;-63
2021/10/11 00:35:41;;;;;;;72.58;41.10;;;;;;;1.89;66.75;101197.95;2152460;81;27500;-62
2021/10/11 00:38:42;;;;;;;84.35;41.20;;;;;;;1.86;66.80;101196.63;2109423;82;28667;-62
2021/10/11 00:41:47;;;;;;;78.40;39.00;;;;;;;1.81;66.93;101193.13;2118815;82;31642;-63
2021/10/11 00:44:53;;;;;;;74.95;36.93;;;;;;;1.77;66.97;101191.34;2153276;81;33646;-62
2021/10/11 00:47:59;;;;;;;73.30;37.80;;;;;;;1.74;66.93;101180.77;2125365;81;29426;-62
2021/10/11 00:51:05;;;;;;;78.85;39.20;;;;;;;1.72;66.89;101171.53;2117617;81;27688;-62
2021/10/11 00:54:09;;;;;;;82.50;40.85;;;;;;;1.70;66.91;101165.37;2121746;80;28695;-62
2021/10/11 00:57:15;;;;;;;77.15;40.73;;;;;;;1.70;66.94;101168.01;2137582;81;31179;-62
2021/10/11 01:00:17;;;;;;;86.22;42.48;;;;;;;1.69;66.89;101164.92;2116791;82;33070;-63
2021/10/11 01:03:22;;;;;;;84.22;43.63;;;;;;;1.67;66.83;101154.80;2119371;82;29363;-63
2021/10/11 01:06:24;;;;;;;84.17;46.48;;;;;;;1.65;66.82;101161.83;2132821;81;28001;-63
2021/10/11 01:09:30;;;;;;;77.45;40.45;;;;;;;1.61;66.81;101154.35;2143408;81;29157;-61
2021/10/11 01:12:36;;;;;;;81.72;40.08;;;;;;;1.56;66.84;101144.21;2119300;81;31690;-61
2021/10/11 01:15:40;;;;;;;79.32;40.95;;;;;;;1.51;66.87;101141.58;2139594;81;33058;-62
2021/10/11 01:18:46;;;;;;;82.82;42.85;;;;;;;1.51;66.93;101140.25;2118189;81;29381;-62
2021/10/11 01:21:53;;;;;;;82.35;42.83;;;;;;;1.51;66.93;101132.33;2113219;82;27745;-63
2021/10/11 01:24:59;;;;;;;87.40;41.88;;;;;;;1.50;66.92;101135.84;2099069;82;28711;-63
2021/10/11 01:28:05;;;;;;;80.38;42.88;;;;;;;1.49;67.05;101147.28;2087866;81;31668;-64
2021/10/11 01:31:09;;;;;;;82.40;40.90;;;;;;;1.48;67.16;101144.66;2109557;82;32951;-64
2021/10/11 01:34:14;;;;;;;82.35;40.05;;;;;;;1.46;67.19;101138.03;2069712;84;29999;-63
2021/10/11 01:37:18;;;;;;;90.45;44.40;;;;;;;1.43;67.13;101130.55;2057692;84;28094;-63
2021/10/11 01:40:20;;;;;;;90.12;44.15;;;;;;;1.39;67.11;101130.10;2079611;83;28778;-63
2021/10/11 01:43:25;;;;;;;83.25;41.65;;;;;;;1.36;67.21;101127.03;2141716;81;32290;-63
2021/10/11 01:46:29;;;;;;;;;;;;;;;1.33;67.16;101122.60;2154981;81;32965;-62
2021/10/11 01:49:33;;;;;;;103.62;47.62;;;;;;;1.30;67.17;101125.69;2114203;81;29376;-63
2021/10/11 01:52:40;;;;;;;95.90;48.98;;;;;;;1.27;67.18;101135.81;2115200;82;27796;-62
2021/10/11 01:55:46;;;;;;;99.65;50.05;;;;;;;1.24;67.36;101125.69;2142856;81;28711;-64
2021/10/11 01:58:51;;;;;;;100.27;50.83;;;;;;;1.22;67.46;101116.44;2134621;81;31030;-62
2021/10/11 02:01:57;;;;;;;102.20;50.85;;;;;;;1.18;67.44;101117.30;2123668;81;33002;-62
2021/10/11 02:05:02;;;;;;;94.77;50.38;;;;;;;1.17;67.45;101105.88;2077081;84;29326;-62
2021/10/11 02:08:06;;;;;;;96.15;49.33;;;;;;;1.15;67.39;101098.39;2115014;82;28163;-63
2021/10/11 02:11:11;;;;;;;98.72;48.63;;;;;;;1.13;67.38;101092.22;2118415;82;28645;-63
2021/10/11 02:14:15;;;;;;;91.35;47.20;;;;;;;1.10;67.33;101095.30;2118437;81;31052;-63
2021/10/11 02:17:21;;;;;;;92.10;46.60;;;;;;;1.08;67.25;101096.59;2120983;82;32984;-62
2021/10/11 02:20:27;;;;;;;84.17;44.05;;;;;;;1.04;67.32;101093.53;2129343;81;29500;-63
2021/10/11 02:23:33;;;;;;;87.37;41.48;;;;;;;1.01;67.33;101083.83;2132785;81;27989;-63
2021/10/11 02:26:37;;;;;;;79.95;39.75;;;;;;;0.98;67.46;101089.12;2135967;80;28670;-64
2021/10/11 02:29:39;;;;;;;73.10;38.95;;;;;;;0.94;67.48;101075.48;2157562;81;31095;-62
2021/10/11 02:32:43;;;;;;;83.82;40.85;;;;;;;0.92;67.55;101067.99;2145834;81;33403;-63
2021/10/11 02:35:46;;;;;;;77.27;40.23;;;;;;;0.90;67.60;101057.45;2143532;80;30272;-64
2021/10/11 02:38:49;;;;;;;80.25;40.48;;;;;;;0.89;67.66;101062.28;2139052;80;33146;-62
2021/10/11 02:41:55;;;;;;;74.32;38.33;;;;;;;0.91;67.75;101067.55;2106530;83;28720;-62
2021/10/11 02:45:01;;;;;;;74.27;37.80;;;;;;;0.92;67.89;101078.55;2091545;83;30890;-63
2021/10/11 02:48:08;;;;;;;77.97;39.88;;;;;;;0.90;67.80;101069.74;2094726;83;33034;-62
2021/10/11 02:51:09;;;;;;;76.70;39.42;;;;;;;0.90;67.85;101063.15;2093035;83;29348;-61
2021/10/11 02:54:17;;;;;;;81.02;39.78;;;;;;;0.87;67.79;101061.81;2119029;81;27601;-61
2021/10/11 02:57:18;;;;;;;77.82;36.88;;;;;;;0.84;67.79;101057.42;2098089;82;29399;-61
2021/10/11 03:00:20;;;;;;;72.55;38.00;;;;;;;0.82;68.00;101060.48;2118846;82;31139;-62
2021/10/11 03:03:26;;;;;;;81.10;39.35;;;;;;;0.82;68.00;101057.85;2132803;82;32993;-61
2021/10/11 03:06:29;;;;;;;106.75;53.45;;;;;;;0.80;68.11;101056.09;2128378;81;30040;-61
2021/10/11 03:09:34;;;;;;;102.07;50.45;;;;;;;0.75;68.53;101044.19;2143439;81;27755;-61
2021/10/11 03:12:40;;;;;;;86.80;41.45;;;;;;;0.68;68.64;101040.66;2129467;82;29521;-61
2021/10/11 03:15:45;;;;;;;81.80;40.78;;;;;;;0.69;68.65;101030.55;2099350;82;31728;-61
2021/10/11 03:18:51;;;;;;;85.40;43.70;;;;;;;0.72;68.78;101033.66;2076392;83;33014;-61
2021/10/11 03:21:57;;;;;;;87.40;45.00;;;;;;;0.73;68.79;101030.15;2079581;84;29357;-61
2021/10/11 03:25:00;;;;;;;94.17;46.90;;;;;;;0.74;68.80;101038.05;2103053;82;27776;-60
2021/10/11 03:28:04;;;;;;;84.28;44.18;;;;;;;0.78;68.78;101039.38;2131261;82;29576;-61
2021/10/11 03:31:10;;;;;;;95.57;47.33;;;;;;;0.79;68.72;101041.15;2128749;82;31068;-61
2021/10/11 03:34:15;;;;;;;83.78;42.27;;;;;;;0.80;68.70;101046.86;2128725;82;32967;-61
2021/10/11 03:37:20;;;;;;;80.97;40.05;;;;;;;0.78;68.67;101040.25;2136618;82;29384;-60
2021/10/11 03:40:26;;;;;;;87.53;41.00;;;;;;;0.80;68.68;101045.55;2099934;81;28105;-61
2021/10/11 03:43:31;;;;;;;79.12;42.83;;;;;;;0.80;68.70;101046.41;2104182;83;28667;-60
2021/10/11 03:46:34;;;;;;;84.40;43.40;;;;;;;0.79;68.77;101043.33;2101823;83;31768;-60
2021/10/11 03:49:41;;;;;;;92.22;44.70;;;;;;;0.78;68.66;101042.89;2141634;81;33626;-61
2021/10/11 03:52:43;;;;;;;84.05;43.87;;;;;;;0.79;68.58;101042.47;2149279;81;29999;-60
2021/10/11 03:55:49;;;;;;;85.12;42.53;;;;;;;0.75;68.62;101048.14;2159632;81;28392;-61
2021/10/11 03:58:54;;;;;;;84.62;43.83;;;;;;;0.74;68.53;101049.05;2158935;81;28685;-62
2021/10/11 04:02:01;;;;;;;80.50;42.33;;;;;;;0.73;68.63;101060.47;2087267;83;31023;-64
2021/10/11 04:05:03;;;;;;;84.92;45.52;;;;;;;0.68;68.54;101049.89;2069984;84;32991;-65
2021/10/11 04:08:13;;;;;;;82.10;42.43;;;;;;;0.65;68.65;101048.59;2054051;83;30158;-64
2021/10/11 04:14:26;;;;;;;81.90;43.45;;;;;;;0.59;68.48;101039.32;2062000;84;28722;-65
2021/10/11 04:17:31;;;;;;;89.32;47.23;;;;;;;0.56;68.53;101036.67;2134920;82;30360;-64
2021/10/11 04:20:36;;;;;;;88.15;47.00;;;;;;;0.55;68.55;101030.95;2149736;81;32964;-64
2021/10/11 04:23:41;;;;;;;102.32;49.03;;;;;;;0.51;68.57;101029.17;2136146;81;29364;-63
2021/10/11 04:26:47;;;;;;;90.72;48.15;;;;;;;0.50;68.67;101030.08;2151459;81;27830;-61
2021/10/11 04:29:52;;;;;;;97.33;49.98;;;;;;;0.47;68.66;101031.38;2144533;81;28687;-63
2021/10/11 04:32:57;;;;;;;92.70;47.25;;;;;;;0.45;68.70;101023.45;2111456;83;31116;-60
2021/10/11 04:36:03;;;;;;;87.30;47.85;;;;;;;0.43;68.71;101025.19;2129024;82;33026;-61
2021/10/11 04:39:06;;;;;;;96.02;47.35;;;;;;;0.41;68.71;101021.70;2110062;83;29386;-60
2021/10/11 04:42:12;;;;;;;91.17;48.55;;;;;;;0.39;68.73;101022.98;2100333;82;27684;-61
2021/10/11 04:45:14;;;;;;;87.25;44.70;;;;;;;0.38;68.75;101017.27;2138264;82;28651;-61
2021/10/11 04:48:21;;;;;;;93.80;49.53;;;;;;;0.36;68.78;101012.42;2163325;81;31443;-61
2021/10/11 04:51:23;;;;;;;86.35;45.85;;;;;;;0.36;68.77;101007.16;2161548;81;32954;-60
2021/10/11 04:54:29;;;;;;;90.87;49.23;;;;;;;0.33;68.71;101003.22;2132370;82;29757;-61
2021/10/11 04:57:35;;;;;;;88.10;46.85;;;;;;;0.30;68.63;101004.06;2106400;82;27638;-60
2021/10/11 05:00:39;;;;;;;101.53;48.25;;;;;;;0.28;68.67;100997.04;2134366;81;28741;-60
2021/10/11 05:03:44;;;;;;;95.90;47.23;;;;;;;0.25;68.81;100999.20;2157910;81;31027;-60
2021/10/11 05:06:49;;;;;;;105.90;49.73;;;;;;;0.25;68.81;100991.75;2112076;82;33015;-61
2021/10/11 05:09:53;;;;;;;88.35;45.92;;;;;;;0.23;68.84;100990.44;2073577;84;29365;-61
2021/10/11 05:12:57;;;;;;;98.05;47.70;;;;;;;0.22;68.95;100996.58;2066491;84;27667;-60
2021/10/11 05:16:02;;;;;;;91.87;46.95;;;;;;;0.22;68.88;100993.95;2106904;82;28628;-60
2021/10/11 05:19:06;;;;;;;87.42;46.28;;;;;;;0.24;68.95;100996.58;2042431;84;30909;-61
2021/10/11 05:22:12;;;;;;;89.32;44.83;;;;;;;0.26;69.03;100994.38;2112397;82;33017;-60
2021/10/11 05:25:17;;;;;;;98.82;46.42;;;;;;;0.26;69.05;100988.24;2157369;81;29335;-60
2021/10/11 05:28:23;;;;;;;91.87;43.80;;;;;;;0.28;69.06;100985.18;2157447;81;27680;-60
2021/10/11 05:31:28;;;;;;;94.92;44.40;;;;;;;0.29;69.22;100985.17;2119378;81;28861;-61
2021/10/11 05:34:32;;;;;;;;;;;;;;;0.33;69.54;100979.50;2128236;82;31747;-61
2021/10/11 05:37:38;;;;;;;85.32;39.90;;;;;;;0.35;69.79;100973.77;2048277;84;33246;-60
2021/10/11 05:40:45;;;;;;;93.30;42.73;;;;;;;0.40;70.24;100975.13;2143312;81;29346;-60
2021/10/11 05:43:51;;;;;;;83.92;45.65;;;;;;;0.44;70.14;100972.92;2155526;81;27874;-60
2021/10/11 05:46:57;;;;;;;84.20;46.33;;;;;;;0.55;70.01;100975.59;2146354;81;28730;-60
2021/10/11 05:49:58;;;;;;;88.80;47.55;;;;;;;0.65;70.05;100976.07;2134343;81;31729;-62
2021/10/11 05:53:03;;;;;;;97.67;48.50;;;;;;;0.78;70.09;100973.45;2079429;84;34062;-62
2021/10/11 05:56:09;;;;;;;95.30;46.98;;;;;;;0.88;70.03;100968.19;2130671;82;28781;-63
2021/10/11 05:59:13;;;;;;;94.67;48.45;;;;;;;0.97;69.90;100965.11;2125767;82;27565;-64
2021/10/11 06:02:19;;;;;;;100.60;45.33;;;;;;;1.04;69.88;100962.47;2138487;82;28648;-61
2021/10/11 06:05:21;;;;;;;89.20;42.60;;;;;;;1.14;69.90;100969.09;2095814;81;31872;-62
2021/10/11 06:08:27;;;;;;;94.07;42.70;;;;;;;1.27;69.92;100973.48;2146251;81;33031;-61
2021/10/11 06:11:32;;;;;;;88.37;45.63;;;;;;;1.45;69.88;100974.34;2143414;81;29972;-60
2021/10/11 06:14:38;;;;;;;97.25;48.23;;;;;;;1.65;70.00;100975.20;2081864;82;27774;-60
2021/10/11 06:17:41;;;;;;;95.28;46.75;;;;;;;1.84;70.02;100976.45;2061710;84;28658;-60
2021/10/11 06:20:47;;;;;;;96.53;49.38;;;;;;;2.01;70.04;100967.17;2100027;82;31101;-60
2021/10/11 06:23:52;;;;;;;104.23;55.40;;;;;;;2.17;69.97;100964.47;2089536;83;33093;-60
2021/10/11 06:26:58;;;;;;;109.20;55.43;;;;;;;2.31;69.99;100963.09;2093447;83;29347;-60
2021/10/11 06:30:03;;;;;;;110.70;55.83;;;;;;;2.44;69.98;100966.11;2103622;83;27785;-60
2021/10/11 06:33:08;;;;;;;103.87;57.15;;;;;;;2.61;69.95;100967.32;2159131;80;28725;-59
2021/10/11 06:36:14;;;;;;;102.12;54.60;;;;;;;2.80;69.86;100967.21;2150995;81;31073;-60
2021/10/11 06:39:20;;;;;;;103.72;55.80;;;;;;;3.00;69.77;100967.05;2148282;81;33805;-60
2021/10/11 06:45:30;;;;;;;;;;;;;;;3.52;69.75;100955.58;2126952;81;27730;-60
2021/10/11 06:48:32;;;;;;;113.43;50.90;;;;;;;3.90;69.47;100952.52;2158756;81;28647;-60
2021/10/11 06:51:38;;;;;;;100.67;51.48;;;;;;;4.33;69.27;100963.05;2138753;81;30832;-61
2021/10/11 06:57:50;;;;;;;108.52;51.05;;;;;;;5.30;68.59;100950.08;2097809;82;29402;-61
2021/10/11 07:00:56;;;;;;;119.10;51.40;;;;;;;5.76;68.02;100950.17;2136677;81;27640;-60
2021/10/11 07:04:00;;;;;;;108.00;54.55;;;;;;;6.24;67.82;100955.87;2036743;84;28683;-60
2021/10/11 07:07:06;;;;;;;82.25;44.27;;;;;;;6.75;67.41;100948.13;2091338;83;31945;-61
2021/10/11 07:10:13;;;;;;;104.45;55.15;;;;;;;7.23;66.86;100954.08;2174110;80;33839;-61
2021/10/11 07:13:16;;;;;;;78.35;50.95;;;;;;;7.65;65.95;100951.20;2173669;81;29374;-61
2021/10/11 07:16:20;;;;;;;98.30;53.20;;;;;;;8.11;65.85;100950.85;2178227;80;27698;-62
2021/10/11 07:19:27;;;;;;;112.72;51.08;;;;;;;8.54;65.33;100942.92;2148319;80;28695;-61
2021/10/11 07:22:32;;;;;;;102.25;50.03;;;;;;;8.95;64.46;100938.05;2133968;81;31078;-62
2021/10/11 07:25:37;;;;;;;88.27;48.02;;;;;;;9.35;63.98;100935.83;2131632;81;33624;-61
2021/10/11 07:28:41;;;;;;;;;;;;;;;9.75;63.45;100930.91;2138733;81;30205;-61
2021/10/11 07:31:47;;;;;;;78.97;45.08;;;;;;;10.11;62.94;100933.61;2127603;82;27797;-61
2021/10/11 07:34:53;;;;;;;82.57;47.10;;;;;;;10.42;62.87;100936.48;2152554;81;29377;-62
2021/10/11 07:41:01;;;;;;;81.25;44.30;;;;;;;11.15;61.58;100930.45;2037507;84;32450;-61
2021/10/11 07:44:09;;;;;;;75.83;45.78;;;;;;;11.44;61.17;100928.33;2068842;84;29448;-61
2021/10/11 07:47:14;;;;;;;78.28;43.75;;;;;;;11.79;60.23;100929.05;2065316;84;28111;-61
2021/10/11 07:50:19;;;;;;;76.37;44.73;;;;;;;12.12;59.93;100928.49;2076902;84;29298;-62
2021/10/11 07:53:20;;;;;;;;;;;;;;;12.46;59.54;100921.09;2073644;83;31858;-64
2021/10/11 07:56:26;;;;;;;66.37;40.38;;;;;;;12.78;58.63;100914.22;2065640;84;34195;-62
2021/10/11 07:59:31;;;;;;;64.12;36.68;;;;;;;13.03;58.73;100914.73;2067528;85;30137;-62
2021/10/11 08:02:37;;;;;;;60.98;36.55;;;;;;;13.20;58.04;100917.94;2037661;84;28576;-62
2021/10/11 08:05:43;;;;;;;65.78;36.50;;;;;;;13.33;57.61;100918.64;2130419;81;28686;-62
2021/10/11 08:08:46;;;;;;;64.67;37.50;;;;;;;13.43;57.14;100910.52;2129012;81;31027;-62
2021/10/11 08:11:53;;;;;;;59.38;36.23;;;;;;;13.44;56.69;100908.22;2143411;82;33305;-64
2021/10/11 08:14:58;;;;;;;70.25;38.35;;;;;;;13.37;56.04;100904.95;2149921;81;29354;-64
2021/10/11 08:18:05;;;;;;;64.15;37.60;;;;;;;13.26;56.30;100905.98;2131239;82;27668;-62
2021/10/11 08:21:11;;;;;;;63.87;35.88;;;;;;;13.28;55.99;100909.92;2107346;83;28729;-62
2021/10/11 08:24:15;;;;;;;62.05;37.67;;;;;;;13.28;55.65;100913.97;2112918;83;31836;-63
2021/10/11 08:27:19;;;;;;;58.20;35.17;;;;;;;13.27;55.77;100910.42;2139453;82;33055;-62
2021/10/11 08:30:20;;;;;;;61.85;35.25;;;;;;;13.28;55.16;100905.89;2140996;82;30020;-62
2021/10/11 08:33:25;;;;;;;66.80;36.65;;;;;;;13.13;55.02;100903.04;2132794;82;27748;-65
2021/10/11 08:36:31;;;;;;;;;;;;;;;12.98;54.76;100909.19;2151845;81;28670;-62
2021/10/11 08:39:36;;;;;;;71.55;38.45;;;;;;;12.94;54.97;100903.56;2161367;81;31883;-62
2021/10/11 08:42:43;;;;;;;68.33;38.08;;;;;;;12.81;55.28;100908.21;2151592;81;33762;-62
2021/10/11 08:45:51;;;;;;;72.55;36.53;;;;;;;12.66;54.99;100904.44;2135311;81;29356;-62
2021/10/11 08:48:56;;;;;;;69.45;38.50;;;;;;;12.54;54.95;100905.05;2138433;81;27694;-62
2021/10/11 08:52:03;;;;;;;71.82;37.90;;;;;;;12.47;55.18;100899.09;2127665;81;28734;-62
2021/10/11 08:55:07;;;;;;;62.53;37.53;;;;;;;12.45;55.04;100902.33;2138984;81;31893;-62
2021/10/11 08:58:12;;;;;;;64.65;36.50;;;;;;;12.46;55.05;100896.01;2142368;81;33044;-63
2021/10/11 09:01:14;;;;;;;59.48;35.20;;;;;;;12.51;55.00;100891.75;2146654;80;29365;-62
2021/10/11 09:04:23;;;;;;;63.25;35.92;;;;;;;12.58;55.08;100889.18;2179640;80;28193;-63
2021/10/11 09:07:29;;;;;;;63.13;34.63;;;;;;;12.69;55.04;100885.48;2173685;80;28716;-63
2021/10/11 09:10:54;;;;;;;64.22;33.90;;;;;;;12.84;54.64;100885.67;2153782;81;31064;-63
2021/10/11 09:14:02;;;;;;;61.13;34.07;;;;;;;13.00;55.00;100876.38;2147024;81;33143;-63
2021/10/11 09:17:08;;;;;;;52.80;30.92;;;;;;;13.17;54.83;100879.53;2146643;81;30511;-63
2021/10/11 09:20:22;;;;;;;47.33;28.57;;;;;;;13.34;54.77;100880.87;2120367;82;27698;-62
2021/10/11 09:23:32;;;;;;;43.42;25.95;;;;;;;13.54;54.79;100868.23;2141438;81;29401;-61
2021/10/11 09:26:51;;;;;;;34.75;24.15;;;;;;;13.77;54.28;100872.38;2139930;81;30970;-62
2021/10/11 09:29:56;;;;;;;33.80;20.45;;;;;;;14.01;53.55;100863.94;2108954;81;33901;-62
2021/10/11 09:33:16;;;;;;;36.48;19.90;;;;;;;14.27;53.00;100861.59;2090477;83;29339;-61
2021/10/11 09:36:25;;;;;;;26.50;17.48;;;;;;;14.47;52.64;100848.36;2103885;82;27685;-62
2021/10/11 09:39:32;;;;;;;31.62;16.62;;;;;;;14.70;52.03;100848.88;2072038;84;28703;-61
2021/10/11 09:42:38;;;;;;;25.85;15.45;;;;;;;14.94;51.82;100848.41;2104008;82;31044;-63
2021/10/11 09:45:45;;;;;;;29.98;15.48;;;;;;;15.07;51.50;100844.02;2148291;81;32411;-62
2021/10/11 09:48:55;;;;;;;29.77;16.52;;;;;;;15.25;51.36;100833.07;2133806;80;29411;-63
2021/10/11 09:52:01;;;;;;;29.05;16.62;;;;;;;15.41;50.56;100821.72;2145432;81;27679;-61
2021/10/11 09:55:12;;;;;;;27.67;15.68;;;;;;;15.54;50.34;100825.88;2126206;80;29541;-66
2021/10/11 09:58:14;;;;;;;25.72;14.68;;;;;;;15.65;50.63;100827.42;2178575;80;31925;-63
2021/10/11 10:01:20;;;;;;;24.55;14.83;;;;;;;15.75;50.00;100818.27;2137220;80;33387;-64
2021/10/11 10:04:29;;;;;;;26.90;15.83;;;;;;;15.86;49.70;100811.33;2105204;82;29996;-62
2021/10/11 10:07:34;;;;;;;29.25;16.40;;;;;;;15.99;49.88;100806.87;2081343;83;27877;-63
2021/10/11 10:10:38;;;;;;;22.77;14.85;;;;;;;16.10;49.59;100807.53;2086395;82;28640;-62
2021/10/11 10:13:51;;;;;;;26.52;16.05;;;;;;;16.19;49.43;100801.55;2092042;82;34663;-63
2021/10/11 10:16:56;;;;;;;28.35;15.90;;;;;;;16.30;49.34;100805.37;2071066;83;33047;-63
2021/10/11 10:20:09;;;;;;;24.40;16.02;;;;;;;16.44;49.21;100799.06;2110037;82;29366;-63
2021/10/11 10:23:22;;;;;;;26.85;16.00;;;;;;;16.55;49.01;100778.91;2111399;82;28683;-63
2021/10/11 10:26:35;;;;;;;28.25;16.20;;;;;;;16.83;48.50;100757.62;2035887;85;28500;-63
2021/10/11 10:29:45;;;;;;;21.25;13.90;;;;;;;16.83;48.50;100757.62;2106499;83;31133;-63
2021/10/11 10:32:58;;;;;;;23.77;13.50;;;;;;;17.11;48.48;100773.83;2090703;83;33062;-62
2021/10/11 10:36:03;;;;;;;18.73;12.95;;;;;;;17.31;47.86;100767.85;2109491;83;30036;-63
2021/10/11 10:39:09;;;;;;;19.70;13.05;;;;;;;17.31;47.86;100767.85;2119125;82;27708;-64
2021/10/11 10:42:26;;;;;;;24.32;13.62;;;;;;;17.40;46.80;100762.27;2130298;82;29702;-63
2021/10/11 10:45:31;;;;;;;21.35;13.18;;;;;;;17.40;46.80;100762.27;2132655;82;32247;-62
2021/10/11 10:48:37;;;;;;;;;;;;;;;17.38;46.51;100762.86;2072241;84;33014;-63
2021/10/11 10:51:44;;;;;;;27.85;13.28;;;;;;;17.35;45.67;100756.81;2048833;85;29449;-65
2021/10/11 10:54:54;;;;;;;21.30;13.68;;;;;;;17.37;46.86;100752.16;2043996;86;27756;-63
2021/10/11 10:58:02;;;;;;;20.75;12.33;;;;;;;17.37;46.86;100752.16;2108901;81;30438;-63
2021/10/11 11:01:08;;;;;;;18.10;12.18;;;;;;;17.41;46.13;100743.70;2106075;83;31925;-63
2021/10/11 11:04:22;;;;;;;21.07;11.78;;;;;;;17.37;46.15;100741.32;2125430;82;32968;-63
2021/10/11 11:07:31;;;;;;;15.53;10.93;;;;;;;17.32;46.27;100737.59;2144383;81;29377;-61
2021/10/11 11:10:39;;;;;;;18.47;11.40;;;;;;;17.29;45.74;100731.89;2123204;82;27769;-62
2021/10/11 11:13:45;;;;;;;17.17;10.65;;;;;;;17.31;45.67;100721.81;2122073;82;29127;-62
2021/10/11 11:16:51;;;;;;;17.02;10.13;;;;;;;17.33;45.75;100725.78;2125966;82;30485;-62
2021/10/11 11:19:57;;;;;;;17.57;9.73;;;;;;;17.33;45.74;100725.78;2125325;81;33984;-62
2021/10/11 11:23:14;;;;;;;15.98;10.72;;;;;;;17.34;45.34;100718.05;2132441;81;29346;-62
2021/10/11 11:26:19;;;;;;;19.73;9.73;;;;;;;17.27;45.41;100710.84;2138452;82;27740;-62
2021/10/11 11:29:25;;;;;;;14.70;10.65;;;;;;;17.34;45.18;100718.05;2091053;82;28715;-62
2021/10/11 11:32:29;;;;;;;40.45;19.10;;;;;;;17.34;45.18;100718.05;2118853;82;31031;-62
2021/10/11 11:35:41;;;;;;;25.70;12.70;;;;;;;17.21;44.78;100705.86;2063627;83;32994;-63
2021/10/11 11:38:47;;;;;;;32.78;16.25;;;;;;;17.28;45.18;100718.47;2088363;83;29999;-61
2021/10/11 11:41:57;;;;;;;21.95;11.35;;;;;;;17.28;45.25;100722.06;2097866;83;28260;-62
2021/10/11 11:45:03;;;;;;;23.40;12.45;;;;;;;17.28;44.91;100729.30;2100412;83;29514;-61
2021/10/11 11:48:04;;;;;;;14.73;10.53;;;;;;;17.16;44.87;100721.09;2104759;82;31031;-61
2021/10/11 11:51:14;;;;;;;59.18;25.70;;;;;;;17.15;44.83;100720.70;2140787;81;34192;-63
2021/10/11 11:54:20;;;;;;;32.30;20.00;;;;;;;17.10;44.66;100720.15;2150604;81;29388;-61
2021/10/11 11:57:26;;;;;;;15.28;11.15;;;;;;;17.01;44.66;100720.81;2103364;82;27788;-61
2021/10/11 12:00:34;;;;;;;18.75;14.63;;;;;;;17.06;45.02;100717.77;2076159;84;28653;-61
2021/10/11 12:03:42;;;;;;;22.77;14.87;;;;;;;16.89;44.76;100698.14;2086414;83;31990;-60
2021/10/11 12:06:45;;;;;;;17.35;10.40;;;;;;;16.89;44.76;100698.14;2143833;81;33437;-61
2021/10/11 12:09:50;;;;;;;13.80;9.60;;;;;;;17.02;44.73;100706.30;2152086;81;29346;-61
2021/10/11 12:13:04;;;;;;;16.80;9.53;;;;;;;17.03;44.64;100718.87;2114169;83;27721;-61
2021/10/11 12:16:15;;;;;;;16.35;9.55;;;;;;;17.03;44.71;100712.57;2125276;82;28679;-62
2021/10/11 12:19:23;;;;;;;17.92;9.55;;;;;;;17.07;44.70;100707.33;2098520;83;31726;-62
2021/10/11 12:22:31;;;;;;;14.45;9.95;;;;;;;17.06;44.50;100695.62;2127600;81;33791;-62
2021/10/11 12:25:38;;;;;;;13.35;9.28;;;;;;;17.01;44.58;100693.75;2136680;81;27667;-63
2021/10/11 12:28:54;;;;;;;16.55;9.68;;;;;;;16.94;44.62;100689.22;2104721;82;27748;-63
2021/10/11 12:32:02;;;;;;;18.02;9.18;;;;;;;16.93;44.52;100692.90;2136088;81;28928;-64
2021/10/11 12:35:03;;;;;;;23.92;14.13;;;;;;;16.92;44.59;100689.81;2149295;81;31060;-63
2021/10/11 12:38:13;;;;;;;16.90;10.95;;;;;;;16.88;44.52;100692.84;2160027;81;33801;-64
2021/10/11 12:41:19;;;;;;;18.55;11.63;;;;;;;16.82;44.72;100688.70;2156760;81;30023;-64
2021/10/11 12:44:44;;;;;;;18.55;11.33;;;;;;;16.80;44.83;100684.77;2163309;80;27720;-65
2021/10/11 12:47:48;;;;;;;17.70;12.37;;;;;;;16.70;44.81;100679.12;2183969;80;28689;-61
2021/10/11 12:50:57;;;;;;;20.20;11.08;;;;;;;16.61;44.90;100677.55;2168231;80;31729;-62
2021/10/11 12:54:12;;;;;;;15.45;10.38;;;;;;;16.55;45.18;100678.34;2165527;80;32987;-62
2021/10/11 12:57:18;;;;;;;16.97;9.28;;;;;;;16.53;45.29;100680.78;2157917;80;29364;-61
2021/10/11 13:00:21;;;;;;;18.95;10.28;;;;;;;16.51;45.19;100674.13;2120969;81;27659;-62
2021/10/11 13:03:23;;;;;;;15.28;9.80;;;;;;;16.40;44.93;100675.33;2179279;81;29620;-63
2021/10/11 13:06:35;;;;;;;21.87;10.18;;;;;;;16.34;45.20;100680.67;2163542;81;31587;-62
2021/10/11 13:09:38;;;;;;;14.93;9.63;;;;;;;16.29;45.33;100667.09;2143932;81;29871;-63
2021/10/11 13:12:41;;;;;;;16.02;9.68;;;;;;;16.29;45.26;100669.80;2134291;82;29299;-63
2021/10/11 13:15:47;;;;;;;15.58;9.93;;;;;;;16.25;45.33;100667.80;2136301;81;27662;-62
2021/10/11 13:18:49;;;;;;;19.67;10.72;;;;;;;16.23;45.46;100663.83;2148543;81;28798;-62
2021/10/11 13:21:55;;;;;;;20.72;11.18;;;;;;;16.16;45.37;100662.53;2141136;81;31466;-63
2021/10/11 13:24:59;;;;;;;20.40;11.83;;;;;;;16.13;45.64;100665.94;2109281;82;32987;-62
2021/10/11 13:28:02;;;;;;;26.62;12.47;;;;;;;16.03;45.51;100664.33;2133861;81;29791;-62
2021/10/11 13:38:36;;;;;;;13.00;8.80;;;;;;;15.93;46.23;100656.81;2137729;81;31796;-62
2021/10/11 14:29:04;;;;;;;30.70;20.43;;;;;;;15.09;48.27;100638.82;2152278;81;31085;-61
2021/10/11 16:02:31;;;;;;;35.33;22.58;;;;;;;12.95;54.46;100607.68;2068324;84;28148;-61
2021/10/11 16:05:33;;;;;;;40.00;23.92;;;;;;;12.88;54.79;100612.98;2055527;84;28880;-61
2021/10/11 16:08:36;;;;;;;40.73;24.32;;;;;;;12.83;54.96;100614.59;2086787;84;30888;-61
2021/10/11 16:11:39;;;;;;;37.23;25.10;;;;;;;12.77;55.35;100609.53;2061833;84;33878;-62
2021/10/11 16:14:43;;;;;;;39.83;24.02;;;;;;;12.73;55.38;100621.42;2065918;85;30207;-64
2021/10/11 16:17:47;;;;;;;42.98;24.70;;;;;;;12.70;55.89;100618.89;2062238;84;27916;-61
2021/10/11 16:20:49;;;;;;;41.18;25.40;;;;;;;12.65;55.96;100608.85;2007888;86;28679;-61
2021/10/11 16:23:51;;;;;;;49.30;27.30;;;;;;;12.59;56.31;100611.39;2041163;85;31262;-61
2021/10/11 16:26:56;;;;;;;39.48;25.40;;;;;;;12.51;56.74;100609.58;2042911;85;34182;-61
2021/10/11 16:29:58;;;;;;;49.60;25.77;;;;;;;12.45;56.79;100613.00;2052366;84;29352;-62
2021/10/11 16:33:00;;;;;;;36.90;25.15;;;;;;;12.44;57.10;100617.09;2038905;85;27791;-62
2021/10/11 16:36:07;;;;;;;40.20;24.57;;;;;;;12.40;57.05;100619.57;2038508;84;29149;-61
2021/10/11 16:39:07;;;;;;;41.15;25.62;;;;;;;12.38;57.27;100616.09;2088492;82;32032;-61
2021/10/11 16:42:09;;;;;;;38.75;23.42;;;;;;;12.35;57.60;100613.06;2160304;81;33383;-60
2021/10/11 16:45:13;;;;;;;40.00;22.37;;;;;;;12.36;57.72;100611.27;2156739;81;29248;-61
2021/10/11 16:48:15;;;;;;;41.28;25.52;;;;;;;12.37;57.85;100611.66;2138923;81;27691;-63
2021/10/11 16:51:17;;;;;;;41.48;24.95;;;;;;;12.33;57.90;100612.27;2134289;81;29028;-62